sensor_id;sensor_type;location;lat;lon;timestamp;P1;durP1;ratioP1;P2;durP2;ratioP2
31270;SDS011;17904;47.420;9.310;2023-01-29T00:04:30;44.90;;;22.75;;
31270;SDS011;17904;47.420;9.310;2023-01-29T00:06:57;46.13;;;23.65;;
31270;SDS011;17904;47.420;9.310;2023-01-29T00:11:51;44.28;;;22.38;;
31270;SDS011;17904;47.420;9.310;2023-01-29T00:16:44;43.90;;;21.30;;
31270;SDS011;17904;47.420;9.310;2023-01-29T00:21:37;50.28;;;25.27;;
31270;SDS011;17904;47.420;9.310;2023-01-29T00:24:04;44.75;;;23.23;;
31270;SDS011;17904;47.420;9.310;2023-01-29T00:26:31;45.38;;;23.48;;
31270;SDS011;17904;47.420;9.310;2023-01-29T00:28:58;52.72;;;24.88;;
31270;SDS011;17904;47.420;9.310;2023-01-29T00:31:27;45.42;;;23.80;;
31270;SDS011;17904;47.420;9.310;2023-01-29T00:33:55;43.25;;;22.17;;
31270;SDS011;17904;47.420;9.310;2023-01-29T00:36:22;43.28;;;22.60;;
31270;SDS011;17904;47.420;9.310;2023-01-29T00:38:57;40.55;;;20.30;;
31270;SDS011;17904;47.420;9.310;2023-01-29T00:41:30;49.03;;;22.25;;
31270;SDS011;17904;47.420;9.310;2023-01-29T00:44:17;45.00;;;23.10;;
31270;SDS011;17904;47.420;9.310;2023-01-29T00:47:02;46.83;;;23.15;;
31270;SDS011;17904;47.420;9.310;2023-01-29T00:49:29;44.97;;;24.10;;
31270;SDS011;17904;47.420;9.310;2023-01-29T00:51:56;44.17;;;20.75;;
31270;SDS011;17904;47.420;9.310;2023-01-29T00:54:42;44.67;;;21.67;;
31270;SDS011;17904;47.420;9.310;2023-01-29T00:59:36;44.13;;;20.97;;
31270;SDS011;17904;47.420;9.310;2023-01-29T01:02:02;44.88;;;23.85;;
31270;SDS011;17904;47.420;9.310;2023-01-29T01:04:48;42.13;;;21.25;;
31270;SDS011;17904;47.420;9.310;2023-01-29T01:07:15;44.25;;;24.02;;
31270;SDS011;17904;47.420;9.310;2023-01-29T01:09:42;51.10;;;27.17;;
31270;SDS011;17904;47.420;9.310;2023-01-29T01:12:28;48.55;;;24.55;;
31270;SDS011;17904;47.420;9.310;2023-01-29T01:14:55;48.60;;;25.55;;
31270;SDS011;17904;47.420;9.310;2023-01-29T01:17:22;56.47;;;28.42;;
31270;SDS011;17904;47.420;9.310;2023-01-29T01:19:49;61.95;;;29.33;;
31270;SDS011;17904;47.420;9.310;2023-01-29T01:22:16;60.25;;;28.75;;
31270;SDS011;17904;47.420;9.310;2023-01-29T01:24:43;62.25;;;30.88;;
31270;SDS011;17904;47.420;9.310;2023-01-29T01:27:10;58.95;;;30.50;;
31270;SDS011;17904;47.420;9.310;2023-01-29T01:29:37;59.75;;;29.17;;
31270;SDS011;17904;47.420;9.310;2023-01-29T01:32:04;57.72;;;29.38;;
31270;SDS011;17904;47.420;9.310;2023-01-29T01:34:31;55.63;;;28.77;;
31270;SDS011;17904;47.420;9.310;2023-01-29T01:36:59;57.83;;;29.23;;
31270;SDS011;17904;47.420;9.310;2023-01-29T01:41:53;61.30;;;28.83;;
31270;SDS011;17904;47.420;9.310;2023-01-29T01:47:43;60.88;;;29.15;;
31270;SDS011;17904;47.420;9.310;2023-01-29T01:50:17;62.30;;;29.75;;
31270;SDS011;17904;47.420;9.310;2023-01-29T01:52:58;59.90;;;28.45;;
31270;SDS011;17904;47.420;9.310;2023-01-29T01:55:31;51.03;;;28.80;;
31270;SDS011;17904;47.420;9.310;2023-01-29T01:58:02;54.05;;;28.02;;
31270;SDS011;17904;47.420;9.310;2023-01-29T02:00:39;55.20;;;28.38;;
31270;SDS011;17904;47.420;9.310;2023-01-29T02:03:07;62.22;;;28.95;;
31270;SDS011;17904;47.420;9.310;2023-01-29T02:05:55;56.55;;;26.45;;
31270;SDS011;17904;47.420;9.310;2023-01-29T02:08:45;59.05;;;28.75;;
31270;SDS011;17904;47.420;9.310;2023-01-29T02:11:46;59.85;;;27.35;;
31270;SDS011;17904;47.420;9.310;2023-01-29T02:14:12;57.47;;;28.98;;
31270;SDS011;17904;47.420;9.310;2023-01-29T02:16:39;54.08;;;26.15;;
31270;SDS011;17904;47.420;9.310;2023-01-29T02:24:27;59.15;;;28.30;;
31270;SDS011;17904;47.420;9.310;2023-01-29T02:27:20;62.13;;;28.85;;
31270;SDS011;17904;47.420;9.310;2023-01-29T02:36:27;59.77;;;27.13;;
31270;SDS011;17904;47.420;9.310;2023-01-29T02:44:36;59.35;;;26.67;;
31270;SDS011;17904;47.420;9.310;2023-01-29T02:47:18;53.42;;;25.83;;
31270;SDS011;17904;47.420;9.310;2023-01-29T02:49:58;53.28;;;28.45;;
31270;SDS011;17904;47.420;9.310;2023-01-29T02:52:37;53.85;;;26.60;;
31270;SDS011;17904;47.420;9.310;2023-01-29T02:55:34;56.10;;;25.75;;
31270;SDS011;17904;47.420;9.310;2023-01-29T02:58:09;50.22;;;26.42;;
31270;SDS011;17904;47.420;9.310;2023-01-29T03:00:42;48.55;;;24.05;;
31270;SDS011;17904;47.420;9.310;2023-01-29T03:03:20;50.33;;;25.75;;
31270;SDS011;17904;47.420;9.310;2023-01-29T03:08:27;52.75;;;25.90;;
31270;SDS011;17904;47.420;9.310;2023-01-29T03:11:09;52.85;;;27.23;;
31270;SDS011;17904;47.420;9.310;2023-01-29T03:14:02;50.58;;;25.48;;
31270;SDS011;17904;47.420;9.310;2023-01-29T03:16:39;52.23;;;25.67;;
31270;SDS011;17904;47.420;9.310;2023-01-29T03:19:19;56.22;;;27.20;;
31270;SDS011;17904;47.420;9.310;2023-01-29T03:21:47;47.13;;;24.73;;
31270;SDS011;17904;47.420;9.310;2023-01-29T03:24:33;45.53;;;24.35;;
31270;SDS011;17904;47.420;9.310;2023-01-29T03:27:38;52.42;;;25.63;;
31270;SDS011;17904;47.420;9.310;2023-01-29T03:30:37;47.03;;;24.40;;
31270;SDS011;17904;47.420;9.310;2023-01-29T03:33:37;48.10;;;24.83;;
31270;SDS011;17904;47.420;9.310;2023-01-29T03:36:13;53.35;;;25.88;;
31270;SDS011;17904;47.420;9.310;2023-01-29T03:38:44;49.78;;;24.73;;
31270;SDS011;17904;47.420;9.310;2023-01-29T03:41:22;49.33;;;26.02;;
31270;SDS011;17904;47.420;9.310;2023-01-29T03:44:15;47.83;;;23.88;;
31270;SDS011;17904;47.420;9.310;2023-01-29T03:46:58;43.13;;;22.48;;
31270;SDS011;17904;47.420;9.310;2023-01-29T03:49:56;43.95;;;21.65;;
31270;SDS011;17904;47.420;9.310;2023-01-29T03:52:40;42.85;;;22.83;;
31270;SDS011;17904;47.420;9.310;2023-01-29T03:55:19;45.80;;;22.88;;
31270;SDS011;17904;47.420;9.310;2023-01-29T04:00:37;50.85;;;24.10;;
31270;SDS011;17904;47.420;9.310;2023-01-29T04:03:12;45.97;;;22.58;;
31270;SDS011;17904;47.420;9.310;2023-01-29T04:05:51;44.13;;;23.77;;
31270;SDS011;17904;47.420;9.310;2023-01-29T04:08:42;44.88;;;23.17;;
31270;SDS011;17904;47.420;9.310;2023-01-29T04:11:11;44.35;;;21.13;;
31270;SDS011;17904;47.420;9.310;2023-01-29T04:13:42;42.28;;;22.02;;
31270;SDS011;17904;47.420;9.310;2023-01-29T04:16:15;42.47;;;21.35;;
31270;SDS011;17904;47.420;9.310;2023-01-29T04:18:54;43.15;;;21.63;;
31270;SDS011;17904;47.420;9.310;2023-01-29T04:21:28;39.25;;;21.23;;
31270;SDS011;17904;47.420;9.310;2023-01-29T04:23:58;41.13;;;22.85;;
31270;SDS011;17904;47.420;9.310;2023-01-29T04:26:32;37.35;;;19.80;;
31270;SDS011;17904;47.420;9.310;2023-01-29T04:32:07;34.17;;;19.02;;
31270;SDS011;17904;47.420;9.310;2023-01-29T04:37:42;40.35;;;21.35;;
31270;SDS011;17904;47.420;9.310;2023-01-29T04:40:28;41.17;;;20.17;;
31270;SDS011;17904;47.420;9.310;2023-01-29T04:48:29;35.17;;;17.60;;
31270;SDS011;17904;47.420;9.310;2023-01-29T04:57:16;38.70;;;18.73;;
31270;SDS011;17904;47.420;9.310;2023-01-29T04:59:47;35.83;;;19.13;;
31270;SDS011;17904;47.420;9.310;2023-01-29T05:02:20;35.85;;;20.02;;
31270;SDS011;17904;47.420;9.310;2023-01-29T05:04:49;38.00;;;21.35;;
31270;SDS011;17904;47.420;9.310;2023-01-29T05:07:18;39.20;;;20.83;;
31270;SDS011;17904;47.420;9.310;2023-01-29T05:09:46;35.42;;;18.48;;
31270;SDS011;17904;47.420;9.310;2023-01-29T05:12:14;33.30;;;18.02;;
31270;SDS011;17904;47.420;9.310;2023-01-29T05:14:43;34.05;;;18.98;;
31270;SDS011;17904;47.420;9.310;2023-01-29T05:17:16;38.83;;;19.67;;
31270;SDS011;17904;47.420;9.310;2023-01-29T05:19:45;36.50;;;19.27;;
31270;SDS011;17904;47.420;9.310;2023-01-29T05:22:12;39.85;;;20.27;;
31270;SDS011;17904;47.420;9.310;2023-01-29T05:24:42;44.47;;;24.05;;
31270;SDS011;17904;47.420;9.310;2023-01-29T05:27:20;41.63;;;22.42;;
31270;SDS011;17904;47.420;9.310;2023-01-29T05:30:09;41.28;;;22.33;;
31270;SDS011;17904;47.420;9.310;2023-01-29T05:32:36;40.88;;;21.90;;
31270;SDS011;17904;47.420;9.310;2023-01-29T05:35:05;41.17;;;19.52;;
31270;SDS011;17904;47.420;9.310;2023-01-29T05:37:32;33.63;;;18.65;;
31270;SDS011;17904;47.420;9.310;2023-01-29T05:42:25;41.17;;;22.20;;
31270;SDS011;17904;47.420;9.310;2023-01-29T05:44:52;38.58;;;20.05;;
31270;SDS011;17904;47.420;9.310;2023-01-29T05:49:46;42.00;;;21.90;;
31270;SDS011;17904;47.420;9.310;2023-01-29T05:54:39;40.10;;;20.77;;
31270;SDS011;17904;47.420;9.310;2023-01-29T05:59:32;38.35;;;19.42;;
31270;SDS011;17904;47.420;9.310;2023-01-29T06:01:59;40.20;;;20.95;;
31270;SDS011;17904;47.420;9.310;2023-01-29T06:04:26;47.40;;;23.85;;
31270;SDS011;17904;47.420;9.310;2023-01-29T06:09:19;44.20;;;21.10;;
31270;SDS011;17904;47.420;9.310;2023-01-29T06:14:13;40.22;;;22.30;;
31270;SDS011;17904;47.420;9.310;2023-01-29T06:19:06;47.72;;;22.90;;
31270;SDS011;17904;47.420;9.310;2023-01-29T06:23:59;43.28;;;22.02;;
31270;SDS011;17904;47.420;9.310;2023-01-29T06:26:26;46.13;;;23.10;;
31270;SDS011;17904;47.420;9.310;2023-01-29T06:28:53;46.70;;;22.65;;
31270;SDS011;17904;47.420;9.310;2023-01-29T06:31:20;43.05;;;22.23;;
31270;SDS011;17904;47.420;9.310;2023-01-29T06:34:03;49.97;;;25.08;;
31270;SDS011;17904;47.420;9.310;2023-01-29T06:36:31;51.13;;;24.60;;
31270;SDS011;17904;47.420;9.310;2023-01-29T06:38:58;45.70;;;23.85;;
31270;SDS011;17904;47.420;9.310;2023-01-29T06:41:25;46.92;;;24.77;;
31270;SDS011;17904;47.420;9.310;2023-01-29T06:46:18;41.38;;;21.98;;
31270;SDS011;17904;47.420;9.310;2023-01-29T06:48:45;45.15;;;23.60;;
31270;SDS011;17904;47.420;9.310;2023-01-29T06:51:12;43.28;;;23.55;;
31270;SDS011;17904;47.420;9.310;2023-01-29T06:56:05;43.55;;;22.30;;
31270;SDS011;17904;47.420;9.310;2023-01-29T06:58:35;47.33;;;22.23;;
31270;SDS011;17904;47.420;9.310;2023-01-29T07:01:07;51.50;;;26.13;;
31270;SDS011;17904;47.420;9.310;2023-01-29T07:03:35;43.00;;;21.90;;
31270;SDS011;17904;47.420;9.310;2023-01-29T07:06:02;43.70;;;22.98;;
31270;SDS011;17904;47.420;9.310;2023-01-29T07:08:30;41.15;;;21.60;;
31270;SDS011;17904;47.420;9.310;2023-01-29T07:13:27;45.17;;;23.67;;
31270;SDS011;17904;47.420;9.310;2023-01-29T07:16:00;52.28;;;24.35;;
31270;SDS011;17904;47.420;9.310;2023-01-29T07:18:30;46.40;;;23.40;;
31270;SDS011;17904;47.420;9.310;2023-01-29T07:20:57;42.90;;;22.75;;
31270;SDS011;17904;47.420;9.310;2023-01-29T07:23:24;43.17;;;22.35;;
31270;SDS011;17904;47.420;9.310;2023-01-29T07:28:17;51.85;;;25.85;;
31270;SDS011;17904;47.420;9.310;2023-01-29T07:30:45;46.30;;;23.00;;
31270;SDS011;17904;47.420;9.310;2023-01-29T07:33:12;52.38;;;25.50;;
31270;SDS011;17904;47.420;9.310;2023-01-29T07:35:40;52.85;;;26.60;;
31270;SDS011;17904;47.420;9.310;2023-01-29T07:38:08;51.45;;;25.83;;
31270;SDS011;17904;47.420;9.310;2023-01-29T07:40:36;47.38;;;24.27;;
31270;SDS011;17904;47.420;9.310;2023-01-29T07:43:04;51.85;;;26.08;;
31270;SDS011;17904;47.420;9.310;2023-01-29T07:45:33;49.65;;;25.25;;
31270;SDS011;17904;47.420;9.310;2023-01-29T07:48:01;47.88;;;24.38;;
31270;SDS011;17904;47.420;9.310;2023-01-29T07:50:32;52.50;;;26.70;;
31270;SDS011;17904;47.420;9.310;2023-01-29T07:53:00;48.42;;;25.58;;
31270;SDS011;17904;47.420;9.310;2023-01-29T07:55:27;46.33;;;24.35;;
31270;SDS011;17904;47.420;9.310;2023-01-29T07:58:03;45.25;;;23.63;;
31270;SDS011;17904;47.420;9.310;2023-01-29T08:00:30;51.63;;;25.83;;
31270;SDS011;17904;47.420;9.310;2023-01-29T08:03:01;48.28;;;24.80;;
31270;SDS011;17904;47.420;9.310;2023-01-29T08:05:32;44.45;;;23.42;;
31270;SDS011;17904;47.420;9.310;2023-01-29T08:07:59;54.78;;;27.67;;
31270;SDS011;17904;47.420;9.310;2023-01-29T08:10:36;55.40;;;27.45;;
31270;SDS011;17904;47.420;9.310;2023-01-29T08:13:04;44.55;;;24.30;;
31270;SDS011;17904;47.420;9.310;2023-01-29T08:15:32;50.75;;;26.45;;
31270;SDS011;17904;47.420;9.310;2023-01-29T08:18:03;50.30;;;27.30;;
31270;SDS011;17904;47.420;9.310;2023-01-29T08:20:30;42.85;;;24.23;;
31270;SDS011;17904;47.420;9.310;2023-01-29T08:25:24;45.13;;;24.05;;
31270;SDS011;17904;47.420;9.310;2023-01-29T08:27:51;42.08;;;23.45;;
31270;SDS011;17904;47.420;9.310;2023-01-29T08:32:45;42.78;;;23.02;;
31270;SDS011;17904;47.420;9.310;2023-01-29T08:35:12;44.20;;;23.17;;
31270;SDS011;17904;47.420;9.310;2023-01-29T08:40:05;37.83;;;21.02;;
31270;SDS011;17904;47.420;9.310;2023-01-29T08:42:34;43.28;;;22.38;;
31270;SDS011;17904;47.420;9.310;2023-01-29T08:47:28;36.33;;;20.60;;
31270;SDS011;17904;47.420;9.310;2023-01-29T08:49:54;37.83;;;21.55;;
31270;SDS011;17904;47.420;9.310;2023-01-29T08:52:21;33.65;;;19.95;;
31270;SDS011;17904;47.420;9.310;2023-01-29T08:54:48;37.85;;;21.58;;
31270;SDS011;17904;47.420;9.310;2023-01-29T08:57:15;38.10;;;21.90;;
31270;SDS011;17904;47.420;9.310;2023-01-29T08:59:41;39.33;;;20.42;;
31270;SDS011;17904;47.420;9.310;2023-01-29T09:04:36;35.33;;;19.58;;
31270;SDS011;17904;47.420;9.310;2023-01-29T09:09:29;33.30;;;19.77;;
31270;SDS011;17904;47.420;9.310;2023-01-29T09:11:56;31.45;;;19.48;;
31270;SDS011;17904;47.420;9.310;2023-01-29T09:16:49;37.17;;;20.90;;
31270;SDS011;17904;47.420;9.310;2023-01-29T09:21:42;33.67;;;19.98;;
31270;SDS011;17904;47.420;9.310;2023-01-29T09:26:36;35.95;;;19.95;;
31270;SDS011;17904;47.420;9.310;2023-01-29T09:29:05;41.40;;;22.98;;
31270;SDS011;17904;47.420;9.310;2023-01-29T09:31:32;37.33;;;21.77;;
31270;SDS011;17904;47.420;9.310;2023-01-29T09:33:58;41.42;;;23.23;;
31270;SDS011;17904;47.420;9.310;2023-01-29T09:38:52;37.92;;;21.98;;
31270;SDS011;17904;47.420;9.310;2023-01-29T09:47:26;39.55;;;23.13;;
31270;SDS011;17904;47.420;9.310;2023-01-29T09:49:59;37.15;;;21.27;;
31270;SDS011;17904;47.420;9.310;2023-01-29T09:57:49;41.95;;;23.27;;
31270;SDS011;17904;47.420;9.310;2023-01-29T10:00:30;46.53;;;24.67;;
31270;SDS011;17904;47.420;9.310;2023-01-29T10:03:06;40.50;;;22.25;;
31270;SDS011;17904;47.420;9.310;2023-01-29T10:08:24;42.67;;;23.23;;
31270;SDS011;17904;47.420;9.310;2023-01-29T10:25:10;40.55;;;23.10;;
31270;SDS011;17904;47.420;9.310;2023-01-29T10:27:46;43.83;;;23.85;;
31270;SDS011;17904;47.420;9.310;2023-01-29T10:30:20;45.88;;;26.20;;
31270;SDS011;17904;47.420;9.310;2023-01-29T10:33:04;44.70;;;24.58;;
31270;SDS011;17904;47.420;9.310;2023-01-29T10:35:36;49.83;;;27.20;;
31270;SDS011;17904;47.420;9.310;2023-01-29T10:38:19;44.90;;;23.52;;
31270;SDS011;17904;47.420;9.310;2023-01-29T10:40:51;42.70;;;24.08;;
31270;SDS011;17904;47.420;9.310;2023-01-29T10:58:04;40.60;;;21.45;;
31270;SDS011;17904;47.420;9.310;2023-01-29T11:00:40;37.35;;;20.70;;
31270;SDS011;17904;47.420;9.310;2023-01-29T11:06:09;36.20;;;22.38;;
31270;SDS011;17904;47.420;9.310;2023-01-29T11:08:58;39.97;;;22.67;;
31270;SDS011;17904;47.420;9.310;2023-01-29T11:11:43;40.60;;;22.20;;
31270;SDS011;17904;47.420;9.310;2023-01-29T11:14:50;41.17;;;22.13;;
31270;SDS011;17904;47.420;9.310;2023-01-29T11:17:24;42.60;;;21.80;;
31270;SDS011;17904;47.420;9.310;2023-01-29T11:19:51;41.10;;;22.67;;
31270;SDS011;17904;47.420;9.310;2023-01-29T11:22:23;40.83;;;22.48;;
31270;SDS011;17904;47.420;9.310;2023-01-29T11:25:08;35.95;;;21.05;;
31270;SDS011;17904;47.420;9.310;2023-01-29T11:27:44;39.28;;;21.02;;
31270;SDS011;17904;47.420;9.310;2023-01-29T11:30:18;41.33;;;21.60;;
31270;SDS011;17904;47.420;9.310;2023-01-29T11:35:57;39.42;;;22.35;;
31270;SDS011;17904;47.420;9.310;2023-01-29T11:38:25;39.45;;;22.15;;
31270;SDS011;17904;47.420;9.310;2023-01-29T11:41:07;40.33;;;21.48;;
31270;SDS011;17904;47.420;9.310;2023-01-29T11:43:43;46.30;;;23.42;;
31270;SDS011;17904;47.420;9.310;2023-01-29T11:46:10;40.22;;;22.90;;
31270;SDS011;17904;47.420;9.310;2023-01-29T11:51:11;44.90;;;24.05;;
31270;SDS011;17904;47.420;9.310;2023-01-29T11:53:56;40.17;;;22.45;;
31270;SDS011;17904;47.420;9.310;2023-01-29T11:56:31;38.97;;;22.02;;
31270;SDS011;17904;47.420;9.310;2023-01-29T12:05:13;37.38;;;20.40;;
31270;SDS011;17904;47.420;9.310;2023-01-29T12:07:46;40.42;;;22.77;;
31270;SDS011;17904;47.420;9.310;2023-01-29T12:10:29;44.00;;;23.88;;
31270;SDS011;17904;47.420;9.310;2023-01-29T12:13:32;45.03;;;23.52;;
31270;SDS011;17904;47.420;9.310;2023-01-29T12:18:44;44.25;;;23.60;;
31270;SDS011;17904;47.420;9.310;2023-01-29T12:26:58;46.05;;;23.90;;
31270;SDS011;17904;47.420;9.310;2023-01-29T12:32:33;42.35;;;22.58;;
31270;SDS011;17904;47.420;9.310;2023-01-29T12:35:29;43.47;;;21.88;;
31270;SDS011;17904;47.420;9.310;2023-01-29T12:38:08;43.08;;;22.63;;
31270;SDS011;17904;47.420;9.310;2023-01-29T12:43:29;45.30;;;23.92;;
31270;SDS011;17904;47.420;9.310;2023-01-29T12:46:01;42.90;;;23.85;;
31270;SDS011;17904;47.420;9.310;2023-01-29T12:48:33;44.05;;;22.27;;
31270;SDS011;17904;47.420;9.310;2023-01-29T12:51:06;41.92;;;21.45;;
31270;SDS011;17904;47.420;9.310;2023-01-29T12:53:58;42.22;;;22.48;;
31270;SDS011;17904;47.420;9.310;2023-01-29T12:56:40;42.08;;;23.63;;
31270;SDS011;17904;47.420;9.310;2023-01-29T12:59:19;47.65;;;22.02;;
31270;SDS011;17904;47.420;9.310;2023-01-29T13:01:57;36.53;;;19.48;;
31270;SDS011;17904;47.420;9.310;2023-01-29T13:04:47;40.58;;;20.85;;
31270;SDS011;17904;47.420;9.310;2023-01-29T13:07:31;46.78;;;23.70;;
31270;SDS011;17904;47.420;9.310;2023-01-29T13:10:08;39.55;;;21.27;;
31270;SDS011;17904;47.420;9.310;2023-01-29T13:12:38;37.40;;;20.95;;
31270;SDS011;17904;47.420;9.310;2023-01-29T13:15:14;39.08;;;21.67;;
31270;SDS011;17904;47.420;9.310;2023-01-29T13:17:50;41.67;;;22.83;;
31270;SDS011;17904;47.420;9.310;2023-01-29T13:20:28;40.42;;;21.70;;
31270;SDS011;17904;47.420;9.310;2023-01-29T13:22:58;39.38;;;21.33;;
31270;SDS011;17904;47.420;9.310;2023-01-29T13:25:37;34.92;;;20.35;;
31270;SDS011;17904;47.420;9.310;2023-01-29T13:30:31;37.33;;;21.20;;
31270;SDS011;17904;47.420;9.310;2023-01-29T13:33:02;39.38;;;19.95;;
31270;SDS011;17904;47.420;9.310;2023-01-29T13:35:35;37.88;;;20.85;;
31270;SDS011;17904;47.420;9.310;2023-01-29T13:38:04;36.30;;;20.90;;
31270;SDS011;17904;47.420;9.310;2023-01-29T13:40:49;38.47;;;21.75;;
31270;SDS011;17904;47.420;9.310;2023-01-29T13:43:20;40.72;;;22.83;;
31270;SDS011;17904;47.420;9.310;2023-01-29T13:45:48;41.72;;;23.42;;
31270;SDS011;17904;47.420;9.310;2023-01-29T13:50:53;45.72;;;23.65;;
31270;SDS011;17904;47.420;9.310;2023-01-29T13:55:49;40.08;;;21.40;;
31270;SDS011;17904;47.420;9.310;2023-01-29T13:58:16;46.08;;;21.67;;
31270;SDS011;17904;47.420;9.310;2023-01-29T14:00:56;46.30;;;23.70;;
31270;SDS011;17904;47.420;9.310;2023-01-29T14:06:01;46.80;;;23.23;;
31270;SDS011;17904;47.420;9.310;2023-01-29T14:13:47;44.97;;;22.60;;
31270;SDS011;17904;47.420;9.310;2023-01-29T14:18:45;39.55;;;22.88;;
31270;SDS011;17904;47.420;9.310;2023-01-29T14:21:21;41.05;;;22.35;;
31270;SDS011;17904;47.420;9.310;2023-01-29T14:24:10;41.97;;;21.05;;
31270;SDS011;17904;47.420;9.310;2023-01-29T14:26:43;42.25;;;22.58;;
31270;SDS011;17904;47.420;9.310;2023-01-29T14:34:34;48.40;;;24.63;;
31270;SDS011;17904;47.420;9.310;2023-01-29T14:42:33;44.97;;;24.40;;
31270;SDS011;17904;47.420;9.310;2023-01-29T14:47:56;39.45;;;22.02;;
31270;SDS011;17904;47.420;9.310;2023-01-29T14:53:00;42.63;;;23.55;;
31270;SDS011;17904;47.420;9.310;2023-01-29T14:55:36;45.78;;;22.90;;
31270;SDS011;17904;47.420;9.310;2023-01-29T14:58:43;46.97;;;23.52;;
31270;SDS011;17904;47.420;9.310;2023-01-29T15:01:24;45.13;;;24.25;;
31270;SDS011;17904;47.420;9.310;2023-01-29T15:03:57;43.17;;;22.95;;
31270;SDS011;17904;47.420;9.310;2023-01-29T15:06:54;39.03;;;22.67;;
31270;SDS011;17904;47.420;9.310;2023-01-29T15:09:41;39.00;;;22.13;;
31270;SDS011;17904;47.420;9.310;2023-01-29T15:12:23;45.78;;;23.58;;
31270;SDS011;17904;47.420;9.310;2023-01-29T15:15:18;38.95;;;20.65;;
31270;SDS011;17904;47.420;9.310;2023-01-29T15:18:00;39.05;;;20.98;;
31270;SDS011;17904;47.420;9.310;2023-01-29T15:20:35;36.70;;;20.70;;
31270;SDS011;17904;47.420;9.310;2023-01-29T15:23:03;48.67;;;26.48;;
31270;SDS011;17904;47.420;9.310;2023-01-29T15:25:48;41.05;;;21.52;;
31270;SDS011;17904;47.420;9.310;2023-01-29T15:28:18;40.80;;;22.60;;
31270;SDS011;17904;47.420;9.310;2023-01-29T15:30:48;37.72;;;21.50;;
31270;SDS011;17904;47.420;9.310;2023-01-29T15:33:19;39.90;;;21.55;;
31270;SDS011;17904;47.420;9.310;2023-01-29T15:35:46;42.28;;;21.65;;
31270;SDS011;17904;47.420;9.310;2023-01-29T15:38:19;31.92;;;17.50;;
31270;SDS011;17904;47.420;9.310;2023-01-29T15:40:51;35.28;;;19.95;;
31270;SDS011;17904;47.420;9.310;2023-01-29T15:43:29;34.10;;;19.80;;
31270;SDS011;17904;47.420;9.310;2023-01-29T15:48:34;34.88;;;20.70;;
31270;SDS011;17904;47.420;9.310;2023-01-29T15:51:05;37.03;;;20.35;;
31270;SDS011;17904;47.420;9.310;2023-01-29T15:53:40;37.00;;;19.17;;
31270;SDS011;17904;47.420;9.310;2023-01-29T15:56:10;31.02;;;17.60;;
31270;SDS011;17904;47.420;9.310;2023-01-29T15:58:38;32.97;;;18.17;;
31270;SDS011;17904;47.420;9.310;2023-01-29T16:01:06;30.08;;;16.42;;
31270;SDS011;17904;47.420;9.310;2023-01-29T16:03:34;32.97;;;17.90;;
31270;SDS011;17904;47.420;9.310;2023-01-29T16:06:02;28.23;;;17.80;;
31270;SDS011;17904;47.420;9.310;2023-01-29T16:08:32;41.33;;;23.58;;
31270;SDS011;17904;47.420;9.310;2023-01-29T16:11:01;40.47;;;20.05;;
31270;SDS011;17904;47.420;9.310;2023-01-29T16:13:30;34.72;;;19.92;;
31270;SDS011;17904;47.420;9.310;2023-01-29T16:16:43;35.90;;;19.05;;
31270;SDS011;17904;47.420;9.310;2023-01-29T16:18:51;41.35;;;20.85;;
31270;SDS011;17904;47.420;9.310;2023-01-29T16:21:29;36.60;;;18.75;;
31270;SDS011;17904;47.420;9.310;2023-01-29T16:24:04;43.83;;;22.52;;
31270;SDS011;17904;47.420;9.310;2023-01-29T16:26:38;47.83;;;24.58;;
31270;SDS011;17904;47.420;9.310;2023-01-29T16:32:01;42.17;;;22.63;;
31270;SDS011;17904;47.420;9.310;2023-01-29T16:34:43;35.63;;;19.60;;
31270;SDS011;17904;47.420;9.310;2023-01-29T16:39:48;35.47;;;18.20;;
31270;SDS011;17904;47.420;9.310;2023-01-29T16:44:59;34.83;;;19.85;;
31270;SDS011;17904;47.420;9.310;2023-01-29T16:47:35;33.80;;;18.33;;
31270;SDS011;17904;47.420;9.310;2023-01-29T16:55:32;37.42;;;19.13;;
31270;SDS011;17904;47.420;9.310;2023-01-29T16:58:03;35.22;;;19.95;;
31270;SDS011;17904;47.420;9.310;2023-01-29T17:00:39;35.55;;;20.60;;
31270;SDS011;17904;47.420;9.310;2023-01-29T17:03:12;35.00;;;19.65;;
31270;SDS011;17904;47.420;9.310;2023-01-29T17:05:42;37.00;;;19.40;;
31270;SDS011;17904;47.420;9.310;2023-01-29T17:08:22;37.60;;;20.58;;
31270;SDS011;17904;47.420;9.310;2023-01-29T17:10:49;33.05;;;19.08;;
31270;SDS011;17904;47.420;9.310;2023-01-29T17:13:26;35.00;;;18.88;;
31270;SDS011;17904;47.420;9.310;2023-01-29T17:16:00;33.92;;;18.88;;
31270;SDS011;17904;47.420;9.310;2023-01-29T17:18:28;83.80;;;35.00;;
31270;SDS011;17904;47.420;9.310;2023-01-29T17:20:55;73.13;;;29.88;;
31270;SDS011;17904;47.420;9.310;2023-01-29T17:25:49;55.78;;;24.38;;
31270;SDS011;17904;47.420;9.310;2023-01-29T17:28:16;55.05;;;24.67;;
31270;SDS011;17904;47.420;9.310;2023-01-29T17:30:43;44.30;;;21.75;;
31270;SDS011;17904;47.420;9.310;2023-01-29T17:33:30;42.05;;;22.63;;
31270;SDS011;17904;47.420;9.310;2023-01-29T17:35:57;44.67;;;22.00;;
31270;SDS011;17904;47.420;9.310;2023-01-29T17:43:23;49.70;;;23.10;;
31270;SDS011;17904;47.420;9.310;2023-01-29T17:45:49;48.83;;;24.70;;
31270;SDS011;17904;47.420;9.310;2023-01-29T17:48:18;43.25;;;22.40;;
31270;SDS011;17904;47.420;9.310;2023-01-29T17:50:50;48.47;;;25.23;;
31270;SDS011;17904;47.420;9.310;2023-01-29T17:53:19;42.40;;;21.77;;
31270;SDS011;17904;47.420;9.310;2023-01-29T17:55:47;44.40;;;23.95;;
31270;SDS011;17904;47.420;9.310;2023-01-29T17:58:18;40.90;;;22.70;;
31270;SDS011;17904;47.420;9.310;2023-01-29T18:00:48;39.97;;;21.48;;
31270;SDS011;17904;47.420;9.310;2023-01-29T18:03:15;39.45;;;20.90;;
31270;SDS011;17904;47.420;9.310;2023-01-29T18:05:42;40.92;;;21.85;;
31270;SDS011;17904;47.420;9.310;2023-01-29T18:08:18;34.92;;;20.27;;
31270;SDS011;17904;47.420;9.310;2023-01-29T18:10:47;33.92;;;18.50;;
31270;SDS011;17904;47.420;9.310;2023-01-29T18:15:40;41.22;;;19.92;;
31270;SDS011;17904;47.420;9.310;2023-01-29T18:20:37;41.95;;;22.27;;
31270;SDS011;17904;47.420;9.310;2023-01-29T18:23:06;46.83;;;25.00;;
31270;SDS011;17904;47.420;9.310;2023-01-29T18:25:33;44.97;;;24.42;;
31270;SDS011;17904;47.420;9.310;2023-01-29T18:28:00;44.30;;;23.13;;
31270;SDS011;17904;47.420;9.310;2023-01-29T18:30:27;43.97;;;22.13;;
31270;SDS011;17904;47.420;9.310;2023-01-29T18:32:54;45.65;;;24.85;;
31270;SDS011;17904;47.420;9.310;2023-01-29T18:35:21;47.17;;;25.30;;
31270;SDS011;17904;47.420;9.310;2023-01-29T18:37:48;42.67;;;22.55;;
31270;SDS011;17904;47.420;9.310;2023-01-29T18:40:16;42.63;;;22.38;;
31270;SDS011;17904;47.420;9.310;2023-01-29T18:42:44;41.33;;;22.67;;
31270;SDS011;17904;47.420;9.310;2023-01-29T18:45:12;40.05;;;21.13;;
31270;SDS011;17904;47.420;9.310;2023-01-29T18:47:40;44.10;;;23.60;;
31270;SDS011;17904;47.420;9.310;2023-01-29T18:52:35;42.75;;;20.95;;
31270;SDS011;17904;47.420;9.310;2023-01-29T18:55:02;41.08;;;21.85;;
31270;SDS011;17904;47.420;9.310;2023-01-29T18:57:29;40.10;;;22.02;;
31270;SDS011;17904;47.420;9.310;2023-01-29T19:00:16;48.15;;;23.55;;
31270;SDS011;17904;47.420;9.310;2023-01-29T19:02:44;43.42;;;23.80;;
31270;SDS011;17904;47.420;9.310;2023-01-29T19:05:11;50.38;;;25.40;;